Time;durP1;ratioP1;P1;durP2;ratioP2;P2;SDS_P1;SDS_P2;PMS_P1;PMS_P2;Temp;Humidity;BMP_temperature;BMP_pressure;BME280_temperature;BME280_humidity;BME280_pressure;Samples;Min_cycle;Max_cycle;Signal;HPM_P1;HPM_P2
2023/09/23 00:00:08;;;;;;;1.92;1.75;;;20.40;99.90;;;;;;5080233;28;20200;-67
2023/09/23 00:02:42;;;;;;;2.03;1.92;;;20.30;99.90;;;;;;5077262;28;20198;-67
2023/09/23 00:05:12;;;;;;;2.05;1.92;;;20.30;99.90;;;;;;5085809;28;20254;-66
2023/09/23 00:07:40;;;;;;;1.70;1.60;;;20.30;99.90;;;;;;5060235;28;20589;-67
2023/09/23 00:10:10;;;;;;;1.70;1.60;;;20.30;99.90;;;;;;5075596;28;20201;-67
2023/09/23 00:12:38;;;;;;;1.40;1.30;;;20.30;99.90;;;;;;5083133;28;20241;-68
2023/09/23 00:15:06;;;;;;;1.42;1.33;;;20.30;99.90;;;;;;5085519;28;20196;-68
2023/09/23 00:17:33;;;;;;;1.38;1.27;;;20.30;99.90;;;;;;5088302;28;20275;-67
2023/09/23 00:20:06;;;;;;;9.63;1.48;;;20.40;99.90;;;;;;5089012;28;20308;-67
2023/09/23 00:22:34;;;;;;;1.17;1.17;;;20.40;99.90;;;;;;5087594;28;20222;-67
2023/09/23 00:25:01;;;;;;;0.82;0.82;;;20.40;99.90;;;;;;5092819;28;20181;-66
2023/09/23 00:27:30;;;;;;;0.88;0.88;;;20.40;99.90;;;;;;5089025;28;20212;-67
2023/09/23 00:29:58;;;;;;;0.90;0.90;;;20.40;99.90;;;;;;5078585;28;20243;-67
2023/09/23 00:32:25;;;;;;;0.90;0.90;;;20.40;99.90;;;;;;5086370;28;20228;-67
2023/09/23 00:34:53;;;;;;;1.08;1.08;;;20.40;99.90;;;;;;5085915;28;20668;-67
2023/09/23 00:37:20;;;;;;;1.00;1.00;;;20.30;99.90;;;;;;5064726;28;20564;-67
2023/09/23 00:39:48;;;;;;;0.98;0.98;;;20.30;99.90;;;;;;5088871;28;20374;-67
2023/09/23 00:42:19;;;;;;;0.93;0.93;;;20.20;99.90;;;;;;5089036;28;20644;-67
2023/09/23 00:44:48;;;;;;;0.80;0.80;;;20.10;99.90;;;;;;5088987;28;20405;-67
2023/09/23 00:47:16;;;;;;;0.95;0.95;;;20.10;99.90;;;;;;5073764;28;20192;-68
2023/09/23 00:49:44;;;;;;;0.93;0.93;;;20.00;99.90;;;;;;5091987;28;20558;-67
2023/09/23 00:52:13;;;;;;;1.00;1.00;;;20.00;99.90;;;;;;5086541;28;20706;-67
2023/09/23 00:54:42;;;;;;;1.58;0.82;;;20.00;99.90;;;;;;5092831;28;20201;-67
2023/09/23 00:57:12;;;;;;;0.70;0.70;;;20.00;99.90;;;;;;5088887;28;20271;-67
2023/09/23 00:59:40;;;;;;;1.00;1.00;;;20.00;99.90;;;;;;5084484;28;20207;-67
2023/09/23 01:02:09;;;;;;;0.80;0.80;;;19.90;99.90;;;;;;5082653;28;20699;-67
2023/09/23 01:04:37;;;;;;;1.05;1.00;;;19.90;99.90;;;;;;5085195;28;20204;-67
2023/09/23 01:07:04;;;;;;;1.00;1.00;;;20.00;99.90;;;;;;5088205;28;20236;-67
2023/09/23 01:09:33;;;;;;;0.90;0.90;;;20.00;99.90;;;;;;5070788;28;20773;-67
2023/09/23 01:12:00;;;;;;;1.15;1.15;;;20.00;99.90;;;;;;5085133;28;20622;-68
2023/09/23 01:14:28;;;;;;;0.90;0.90;;;20.00;99.90;;;;;;5087902;28;20201;-67
2023/09/23 01:16:58;;;;;;;1.02;1.02;;;20.00;99.90;;;;;;5084143;28;20192;-67
2023/09/23 01:19:26;;;;;;;0.93;0.93;;;20.00;99.90;;;;;;5072562;28;20236;-67
2023/09/23 01:21:55;;;;;;;0.90;0.90;;;20.00;99.90;;;;;;5080842;28;20274;-67
2023/09/23 01:24:25;;;;;;;0.80;0.80;;;20.00;99.90;;;;;;5077851;28;20289;-67
2023/09/23 01:26:52;;;;;;;0.75;0.75;;;20.00;99.90;;;;;;5075255;28;20189;-67
2023/09/23 01:29:22;;;;;;;0.70;0.70;;;20.00;99.90;;;;;;5068834;28;20197;-67
2023/09/23 01:32:04;;;;;;;0.88;0.88;;;20.00;99.90;;;;;;5074007;28;20260;-68
2023/09/23 02:31:50;;;;;;;0.73;0.73;;;19.70;99.90;;;;;;5049283;28;20252;-67
2023/09/23 02:34:20;;;;;;;0.88;0.88;;;19.70;99.90;;;;;;5029182;28;20214;-67
2023/09/23 02:36:47;;;;;;;0.80;0.80;;;19.70;99.90;;;;;;5033228;28;20989;-67
2023/09/23 02:39:16;;;;;;;0.80;0.80;;;19.70;99.90;;;;;;5049145;28;20557;-67
2023/09/23 02:41:45;;;;;;;0.88;0.88;;;19.70;99.90;;;;;;5036378;28;20287;-67
2023/09/23 02:44:18;;;;;;;0.80;0.80;;;19.70;99.90;;;;;;5050099;28;20565;-67
2023/09/23 02:46:46;;;;;;;0.52;0.52;;;19.70;99.90;;;;;;5050017;28;20194;-67
2023/09/23 02:49:13;;;;;;;0.80;0.80;;;19.70;99.90;;;;;;5053271;28;20196;-67
2023/09/23 02:51:42;;;;;;;0.63;0.63;;;19.70;99.90;;;;;;5051057;28;20693;-67
2023/09/23 02:54:34;;;;;;;0.70;0.70;;;19.80;99.90;;;;;;5054115;28;20301;-67
2023/09/23 02:57:03;;;;;;;0.70;0.70;;;19.70;99.90;;;;;;5048877;28;20221;-67
2023/09/23 02:59:31;;;;;;;0.80;0.80;;;19.70;99.90;;;;;;5043492;28;20255;-67
2023/09/23 03:02:00;;;;;;;0.55;0.55;;;19.70;99.90;;;;;;5035643;28;20197;-68
2023/09/23 03:04:29;;;;;;;0.60;0.60;;;19.70;99.90;;;;;;5044638;28;20220;-67
2023/09/23 03:07:01;;;;;;;0.50;0.50;;;19.70;99.90;;;;;;5033431;28;20243;-67
2023/09/23 03:09:32;;;;;;;0.50;0.50;;;19.70;99.90;;;;;;5050800;28;20285;-67
2023/09/23 03:12:00;;;;;;;0.70;0.70;;;19.70;99.90;;;;;;5050214;28;20255;-68
2023/09/23 03:14:38;;;;;;;0.60;0.60;;;19.70;99.90;;;;;;5048742;28;20194;-67
2023/09/23 03:17:07;;;;;;;0.80;0.80;;;19.70;99.90;;;;;;5038772;28;20213;-67
2023/09/23 03:19:34;;;;;;;0.60;0.60;;;19.70;99.90;;;;;;5051112;28;20194;-67
2023/09/23 03:22:03;;;;;;;0.60;0.60;;;19.80;99.90;;;;;;5049796;28;20226;-67
2023/09/23 03:24:31;;;;;;;0.80;0.80;;;19.80;99.90;;;;;;5046308;28;20218;-67
2023/09/23 03:27:00;;;;;;;1.00;1.00;;;19.80;99.90;;;;;;5050877;28;20194;-67
2023/09/23 03:29:30;;;;;;;0.80;0.80;;;19.70;99.90;;;;;;5030953;28;20195;-67
2023/09/23 03:31:59;;;;;;;0.65;0.65;;;19.60;99.90;;;;;;5034553;28;20198;-67
2023/09/23 03:34:27;;;;;;;0.90;0.90;;;19.60;99.90;;;;;;5033112;28;20636;-67
2023/09/23 03:36:54;;;;;;;0.70;0.70;;;19.60;99.90;;;;;;5049416;28;20190;-67
2023/09/23 03:39:24;;;;;;;0.60;0.60;;;19.60;99.90;;;;;;5030924;28;20206;-67
2023/09/23 03:41:52;;;;;;;0.80;0.80;;;19.60;99.90;;;;;;5031368;28;20194;-66
2023/09/23 03:44:19;;;;;;;0.85;0.85;;;19.60;99.90;;;;;;5036552;28;20261;-67
2023/09/23 03:46:47;;;;;;;1.10;1.00;;;19.60;99.90;;;;;;5032394;28;20210;-67
2023/09/23 03:49:14;;;;;;;0.85;0.85;;;19.50;99.90;;;;;;5034576;28;20267;-66
2023/09/23 03:51:41;;;;;;;0.90;0.90;;;19.60;99.90;;;;;;5049524;28;20665;-67
2023/09/23 03:54:09;;;;;;;1.00;1.00;;;19.50;99.90;;;;;;5059095;28;20200;-67
2023/09/23 03:56:40;;;;;;;0.80;0.80;;;19.60;99.90;;;;;;5049579;28;20290;-66
2023/09/23 03:59:07;;;;;;;0.88;0.88;;;19.60;99.90;;;;;;5040002;28;20198;-67
2023/09/23 04:01:36;;;;;;;0.70;0.70;;;19.50;99.90;;;;;;5030943;28;20283;-65
2023/09/23 04:04:06;;;;;;;0.70;0.70;;;19.50;99.90;;;;;;5045046;28;20573;-66
2023/09/23 04:06:34;;;;;;;0.95;0.95;;;19.50;99.90;;;;;;5034590;28;20267;-65
2023/09/23 04:09:01;;;;;;;0.77;0.77;;;19.50;99.90;;;;;;5055148;28;20284;-67
2023/09/23 04:11:28;;;;;;;1.00;0.90;;;19.50;99.90;;;;;;5047133;28;20193;-67
2023/09/23 04:13:57;;;;;;;0.85;0.85;;;19.50;99.90;;;;;;5049821;28;20221;-67
2023/09/23 04:16:24;;;;;;;0.88;0.88;;;19.50;99.90;;;;;;5035240;28;20198;-67
2023/09/23 04:18:51;;;;;;;0.95;0.95;;;19.40;99.90;;;;;;5051715;28;20554;-66
2023/09/23 04:21:22;;;;;;;0.80;0.80;;;19.40;99.90;;;;;;5049127;28;20194;-67
2023/09/23 04:23:51;;;;;;;0.60;0.60;;;19.40;99.90;;;;;;5052387;28;20225;-67
2023/09/23 04:26:22;;;;;;;0.85;0.85;;;19.40;99.90;;;;;;5032204;28;20202;-67
2023/09/23 04:28:51;;;;;;;1.55;0.95;;;19.40;99.90;;;;;;5053330;28;20653;-67
2023/09/23 04:31:23;;;;;;;0.98;0.98;;;19.40;99.90;;;;;;5030523;28;20228;-67
2023/09/23 04:33:51;;;;;;;0.82;0.82;;;19.40;99.90;;;;;;5048159;28;20372;-67
2023/09/23 04:36:21;;;;;;;0.70;0.70;;;19.40;99.90;;;;;;5046662;28;20308;-67
2023/09/23 04:38:50;;;;;;;0.70;0.70;;;19.40;99.90;;;;;;5048143;28;20198;-67
2023/09/23 04:41:17;;;;;;;0.85;0.85;;;19.50;99.90;;;;;;5037740;28;20552;-67
2023/09/23 04:43:45;;;;;;;0.80;0.80;;;19.50;99.90;;;;;;5047928;28;20222;-67
2023/09/23 04:46:14;;;;;;;0.70;0.70;;;19.50;99.90;;;;;;5030268;28;20206;-67
2023/09/23 04:48:43;;;;;;;0.65;0.65;;;19.60;99.90;;;;;;5047338;28;20595;-64
2023/09/23 04:51:10;;;;;;;0.70;0.70;;;19.60;99.90;;;;;;5058988;28;20277;-65
2023/09/23 04:53:38;;;;;;;0.95;0.95;;;19.50;99.90;;;;;;5030005;28;20682;-66
2023/09/23 04:56:07;;;;;;;0.70;0.70;;;19.50;99.90;;;;;;5057890;28;20193;-66
2023/09/23 04:58:35;;;;;;;0.60;0.60;;;19.40;99.90;;;;;;5047712;28;20287;-67
2023/09/23 05:01:03;;;;;;;0.60;0.60;;;19.40;99.90;;;;;;5020138;28;20219;-66
2023/09/23 05:03:30;;;;;;;0.70;0.70;;;19.40;99.90;;;;;;5015499;28;20697;-66
2023/09/23 05:06:00;;;;;;;0.65;0.65;;;19.30;99.90;;;;;;5055346;28;20491;-66
2023/09/23 05:08:28;;;;;;;0.57;0.57;;;19.30;99.90;;;;;;5047397;28;20197;-66
2023/09/23 05:10:56;;;;;;;0.70;0.70;;;19.30;99.90;;;;;;5045734;28;20308;-66
2023/09/23 05:13:24;;;;;;;0.60;0.60;;;19.20;99.90;;;;;;5043917;28;20198;-66
2023/09/23 05:15:51;;;;;;;0.60;0.60;;;19.20;99.90;;;;;;5047414;28;20194;-66
2023/09/23 05:18:18;;;;;;;0.60;0.60;;;19.30;99.90;;;;;;5041383;28;20280;-66
2023/09/23 05:20:47;;;;;;;0.50;0.50;;;19.30;99.90;;;;;;5048637;28;20197;-66
2023/09/23 05:23:16;;;;;;;0.60;0.60;;;19.20;99.90;;;;;;5047824;28;20695;-66
2023/09/23 05:25:45;;;;;;;0.60;0.60;;;19.20;99.90;;;;;;5055289;28;20189;-66
2023/09/23 05:28:12;;;;;;;0.50;0.50;;;19.30;99.90;;;;;;5052125;28;20194;-66
2023/09/23 05:30:39;;;;;;;0.70;0.70;;;19.30;99.90;;;;;;5054094;28;20284;-67
2023/09/23 05:33:06;;;;;;;0.45;0.45;;;19.30;99.90;;;;;;5050345;28;20255;-66
2023/09/23 05:35:33;;;;;;;0.70;0.70;;;19.30;99.90;;;;;;5047511;28;20618;-67
2023/09/23 05:38:00;;;;;;;0.45;0.45;;;19.30;99.90;;;;;;5051443;28;20240;-67
2023/09/23 05:40:29;;;;;;;0.40;0.40;;;19.30;99.90;;;;;;5053474;28;20194;-67
2023/09/23 05:42:56;;;;;;;0.70;0.70;;;19.40;99.90;;;;;;5051927;28;20202;-67
2023/09/23 05:45:24;;;;;;;0.60;0.60;;;19.40;99.90;;;;;;5061263;28;20279;-65
2023/09/23 05:47:52;;;;;;;0.60;0.60;;;19.50;99.90;;;;;;5051987;28;20205;-67
2023/09/23 05:50:20;;;;;;;0.55;0.55;;;19.50;99.90;;;;;;5057076;28;20193;-66
2023/09/23 05:52:47;;;;;;;0.60;0.60;;;19.50;99.90;;;;;;5055843;28;20198;-67
2023/09/23 05:55:15;;;;;;;0.70;0.70;;;19.50;99.90;;;;;;5053200;28;20197;-66
2023/09/23 05:57:44;;;;;;;0.60;0.60;;;19.60;99.90;;;;;;5033374;28;20241;-67
2023/09/23 06:00:15;;;;;;;0.70;0.70;;;19.60;99.90;;;;;;5048409;28;20229;-66
2023/09/23 06:02:44;;;;;;;0.80;0.80;;;19.60;99.90;;;;;;5032526;28;20205;-66
2023/09/23 06:05:11;;;;;;;0.80;0.80;;;19.60;99.90;;;;;;5051225;28;20693;-66
2023/09/23 06:07:38;;;;;;;0.60;0.60;;;19.70;99.90;;;;;;5052824;28;20226;-66
2023/09/23 06:10:06;;;;;;;0.70;0.70;;;19.70;99.90;;;;;;5043552;28;20289;-66
2023/09/23 06:12:34;;;;;;;0.80;0.80;;;19.70;99.90;;;;;;5057262;28;20699;-67
2023/09/23 06:15:05;;;;;;;0.90;0.90;;;19.70;99.90;;;;;;5052258;28;20828;-66
2023/09/23 06:17:32;;;;;;;1.20;0.93;;;19.60;99.90;;;;;;5049981;28;20193;-67
2023/09/23 06:20:00;;;;;;;0.80;0.80;;;19.60;99.90;;;;;;5046789;28;20264;-67
2023/09/23 06:22:27;;;;;;;1.10;1.10;;;19.60;99.90;;;;;;5049652;28;20217;-66
2023/09/23 06:24:55;;;;;;;1.00;1.00;;;19.70;99.90;;;;;;5051257;28;20210;-66
2023/09/23 06:27:22;;;;;;;0.95;0.95;;;19.60;99.90;;;;;;5053219;28;20364;-66
2023/09/23 06:29:49;;;;;;;0.70;0.70;;;19.60;99.90;;;;;;5051570;28;20715;-66
2023/09/23 06:32:18;;;;;;;0.90;0.90;;;19.60;99.90;;;;;;5050501;28;20477;-66
2023/09/23 06:34:45;;;;;;;0.70;0.70;;;19.50;99.90;;;;;;5049782;28;20198;-66
2023/09/23 06:37:12;;;;;;;0.80;0.80;;;19.50;99.90;;;;;;5052018;28;20218;-66
2023/09/23 06:39:39;;;;;;;0.90;0.90;;;19.60;99.90;;;;;;5051496;28;20288;-66
2023/09/23 06:42:07;;;;;;;0.60;0.60;;;19.60;99.90;;;;;;5050779;28;20260;-67
2023/09/23 06:44:34;;;;;;;0.98;0.98;;;19.60;99.90;;;;;;5050028;28;20233;-67
2023/09/23 06:47:01;;;;;;;0.60;0.60;;;19.60;99.90;;;;;;5057129;28;20244;-65
2023/09/23 06:49:30;;;;;;;0.80;0.80;;;19.60;99.90;;;;;;5043859;28;20198;-66
2023/09/23 06:51:57;;;;;;;0.70;0.70;;;19.60;99.90;;;;;;5051788;28;20262;-66
2023/09/23 06:54:26;;;;;;;0.65;0.65;;;19.60;99.90;;;;;;5052586;28;20600;-66
2023/09/23 06:56:54;;;;;;;0.70;0.70;;;19.60;99.90;;;;;;5055172;28;20605;-66
2023/09/23 06:59:21;;;;;;;0.82;0.82;;;19.60;99.90;;;;;;5055542;28;20201;-66
2023/09/23 07:01:49;;;;;;;0.80;0.80;;;19.70;99.90;;;;;;5041709;28;20260;-66
2023/09/23 07:04:16;;;;;;;0.80;0.80;;;19.70;99.90;;;;;;5020459;28;20244;-66
2023/09/23 07:06:44;;;;;;;1.30;1.20;;;19.80;99.90;;;;;;5056831;28;20244;-66
2023/09/23 07:09:12;;;;;;;0.70;0.70;;;19.80;99.90;;;;;;5063189;28;20232;-67
2023/09/23 07:11:40;;;;;;;0.93;0.93;;;19.80;99.90;;;;;;5053081;28;20282;-67
2023/09/23 07:14:07;;;;;;;0.93;0.93;;;19.90;99.90;;;;;;5055702;28;20281;-67
2023/09/23 07:16:34;;;;;;;0.73;0.73;;;19.90;99.90;;;;;;5049601;28;20277;-66
2023/09/23 07:19:01;;;;;;;1.25;1.15;;;19.90;99.90;;;;;;5047623;28;20205;-66
2023/09/23 07:21:29;;;;;;;4.85;1.08;;;19.90;99.90;;;;;;5052062;28;20200;-66
2023/09/23 07:23:59;;;;;;;0.90;0.90;;;20.00;99.90;;;;;;5054142;28;20295;-67
2023/09/23 07:26:26;;;;;;;1.15;1.10;;;20.00;99.90;;;;;;5052971;28;20407;-67
2023/09/23 07:28:53;;;;;;;2.75;0.77;;;19.90;99.90;;;;;;5057232;28;20277;-67
2023/09/23 07:31:21;;;;;;;0.80;0.80;;;20.10;99.90;;;;;;5051319;28;20221;-67
2023/09/23 07:33:48;;;;;;;2.05;1.13;;;20.10;99.90;;;;;;5049345;28;20202;-66
2023/09/23 07:36:15;;;;;;;0.80;0.80;;;20.10;99.90;;;;;;5040091;28;20231;-66
2023/09/23 07:38:43;;;;;;;0.85;0.85;;;20.10;99.90;;;;;;5050362;28;20242;-66
2023/09/23 07:41:12;;;;;;;0.65;0.65;;;20.20;99.90;;;;;;5043461;28;20194;-66
2023/09/23 07:43:39;;;;;;;0.82;0.82;;;20.40;99.90;;;;;;5020118;28;20217;-66
2023/09/23 07:46:06;;;;;;;1.33;1.23;;;20.50;99.90;;;;;;5042745;28;20217;-66
2023/09/23 07:48:33;;;;;;;1.00;1.00;;;20.80;99.90;;;;;;5045894;28;20264;-67
2023/09/23 07:51:00;;;;;;;0.80;0.80;;;22.10;99.90;;;;;;5049160;28;20193;-66
2023/09/23 07:53:27;;;;;;;0.90;0.90;;;23.80;99.90;;;;;;5051235;28;20206;-66
2023/09/23 07:55:55;;;;;;;0.95;0.95;;;25.30;99.90;;;;;;5048537;28;20216;-66
2023/09/23 07:58:23;;;;;;;1.38;1.20;;;26.50;99.90;;;;;;5038769;28;20219;-66
2023/09/23 08:00:50;;;;;;;1.17;1.13;;;27.60;99.90;;;;;;5045439;28;20220;-66
2023/09/23 08:03:17;;;;;;;1.40;1.30;;;28.70;96.80;;;;;;5044366;28;20281;-66
2023/09/23 08:05:44;;;;;;;1.10;1.00;;;29.40;94.80;;;;;;5043925;28;20214;-66
2023/09/23 08:08:11;;;;;;;1.00;1.00;;;29.80;93.50;;;;;;5047330;28;20190;-67
2023/09/23 08:10:38;;;;;;;0.68;0.68;;;29.20;93.10;;;;;;5044338;28;20209;-66
2023/09/23 08:13:05;;;;;;;0.93;0.93;;;28.10;94.10;;;;;;5047696;28;20200;-67
2023/09/23 08:15:34;;;;;;;0.82;0.82;;;27.10;95.30;;;;;;5042569;28;20552;-67
2023/09/23 08:18:01;;;;;;;1.23;1.13;;;26.20;96.30;;;;;;5042648;28;20224;-66
2023/09/23 08:20:29;;;;;;;0.73;0.73;;;25.40;97.20;;;;;;5040046;28;20248;-67
2023/09/23 08:22:56;;;;;;;0.90;0.90;;;24.70;98.10;;;;;;5024083;28;20330;-67
2023/09/23 08:25:24;;;;;;;0.90;0.90;;;24.20;98.60;;;;;;5040513;28;20290;-67
2023/09/23 08:27:53;;;;;;;1.48;1.20;;;23.70;99.30;;;;;;5023919;28;20262;-67
2023/09/23 08:30:22;;;;;;;0.80;0.80;;;23.30;99.60;;;;;;5025407;28;20248;-67
2023/09/23 08:32:51;;;;;;;1.13;1.13;;;23.00;99.90;;;;;;5046741;28;20209;-66
2023/09/23 08:35:18;;;;;;;1.13;1.10;;;22.80;99.90;;;;;;5046463;28;20204;-67
2023/09/23 08:37:46;;;;;;;0.98;0.90;;;22.50;99.90;;;;;;5044299;28;20194;-67
2023/09/23 08:40:15;;;;;;;0.95;0.95;;;22.40;99.90;;;;;;5051646;28;20194;-67
2023/09/23 08:42:42;;;;;;;0.90;0.90;;;22.20;99.90;;;;;;5048140;28;20691;-67
2023/09/23 08:45:10;;;;;;;0.98;0.98;;;22.10;99.90;;;;;;5052809;28;20661;-67
2023/09/23 08:47:38;;;;;;;1.00;1.00;;;22.10;99.90;;;;;;5048266;28;20197;-67
2023/09/23 08:50:08;;;;;;;1.15;1.00;;;22.00;99.90;;;;;;5042431;28;21075;-67
2023/09/23 08:52:36;;;;;;;0.90;0.90;;;22.00;99.90;;;;;;5046834;28;20198;-67
2023/09/23 08:55:04;;;;;;;0.80;0.80;;;21.90;99.90;;;;;;5056765;28;20273;-67
2023/09/23 08:57:34;;;;;;;1.15;1.00;;;21.80;99.90;;;;;;5048208;28;20225;-68
2023/09/23 09:00:07;;;;;;;1.00;0.90;;;21.80;99.90;;;;;;5050152;28;20261;-67
2023/09/23 09:02:34;;;;;;;0.80;0.80;;;21.70;99.90;;;;;;5044921;28;20209;-67
2023/09/23 09:05:02;;;;;;;0.90;0.90;;;21.70;99.90;;;;;;5044691;28;20354;-67
2023/09/23 09:07:35;;;;;;;1.17;0.90;;;21.60;99.90;;;;;;5039903;28;20684;-67
2023/09/23 09:10:05;;;;;;;1.25;1.15;;;21.70;99.90;;;;;;5052793;28;20251;-67
2023/09/23 09:12:32;;;;;;;0.93;0.88;;;21.60;99.90;;;;;;5047990;28;20189;-67
2023/09/23 09:14:59;;;;;;;1.48;1.20;;;21.60;99.90;;;;;;5045203;28;20202;-67
2023/09/23 09:17:27;;;;;;;1.48;1.20;;;21.60;99.90;;;;;;5040916;28;20577;-66
2023/09/23 09:19:54;;;;;;;1.20;1.10;;;21.60;99.90;;;;;;5047877;28;20225;-66
2023/09/23 09:22:21;;;;;;;1.00;1.00;;;21.60;99.90;;;;;;5045231;28;20201;-66
2023/09/23 09:24:50;;;;;;;1.70;0.95;;;21.60;99.90;;;;;;5046804;28;20224;-66
2023/09/23 09:27:17;;;;;;;1.10;1.10;;;21.70;99.90;;;;;;5048668;28;20246;-65
2023/09/23 09:29:45;;;;;;;3.17;1.17;;;21.70;99.90;;;;;;5041666;28;20202;-66
2023/09/23 09:32:16;;;;;;;0.95;0.88;;;21.70;99.90;;;;;;5047701;28;20271;-66
2023/09/23 09:34:47;;;;;;;1.17;1.10;;;21.80;99.90;;;;;;5041042;28;20206;-66
2023/09/23 09:37:15;;;;;;;0.80;0.80;;;21.90;99.90;;;;;;5047680;28;20221;-66
2023/09/23 09:39:51;;;;;;;1.08;1.08;;;22.40;99.90;;;;;;5042787;28;20202;-66
2023/09/23 09:42:33;;;;;;;0.95;0.90;;;22.90;99.90;;;;;;5051267;28;20189;-66
2023/09/23 09:45:02;;;;;;;1.20;1.10;;;23.50;99.90;;;;;;5054184;28;20202;-66
2023/09/23 09:47:32;;;;;;;0.93;0.93;;;24.30;99.90;;;;;;5037397;28;20293;-65
2023/09/23 09:50:00;;;;;;;1.45;1.02;;;25.20;99.00;;;;;;5050354;28;20560;-68
2023/09/23 09:52:28;;;;;;;1.08;1.08;;;26.10;97.90;;;;;;5033442;28;20202;-67
2023/09/23 09:54:57;;;;;;;1.75;1.10;;;26.80;96.50;;;;;;5048562;28;20209;-66
2023/09/23 09:57:26;;;;;;;0.90;0.90;;;27.30;95.40;;;;;;5038773;28;22532;-66
2023/09/23 10:00:00;;;;;;;1.00;0.90;;;27.80;94.70;;;;;;5027388;28;20284;-67
2023/09/23 10:02:28;;;;;;;1.95;1.15;;;28.30;93.60;;;;;;5046202;28;20218;-66
2023/09/23 10:04:55;;;;;;;1.10;1.00;;;28.60;92.40;;;;;;5028294;28;20271;-66
2023/09/23 10:07:23;;;;;;;1.25;1.15;;;28.80;91.50;;;;;;5051948;28;20198;-67
2023/09/23 10:09:53;;;;;;;0.98;0.98;;;29.00;91.00;;;;;;5046511;28;20194;-67
2023/09/23 10:12:26;;;;;;;1.42;1.00;;;29.00;90.60;;;;;;5047775;28;20193;-67
2023/09/23 10:14:55;;;;;;;1.58;1.30;;;29.00;90.30;;;;;;5052281;28;20661;-67
2023/09/23 10:17:30;;;;;;;1.17;1.08;;;28.80;89.00;;;;;;5051275;28;20321;-66
2023/09/23 10:19:57;;;;;;;2.90;0.90;;;28.90;89.00;;;;;;5059604;28;20383;-67
2023/09/23 10:22:28;;;;;;;0.85;0.85;;;28.90;87.70;;;;;;5048726;28;20210;-67
2023/09/23 10:25:04;;;;;;;1.65;1.00;;;28.80;86.90;;;;;;5053053;28;20221;-67
2023/09/23 10:27:36;;;;;;;0.90;0.90;;;28.60;86.30;;;;;;5050020;28;20194;-67
2023/09/23 10:30:05;;;;;;;0.80;0.80;;;28.60;86.50;;;;;;5049447;28;20203;-67
2023/09/23 10:32:33;;;;;;;1.00;1.00;;;28.80;85.30;;;;;;5048263;28;20204;-67
2023/09/23 10:35:00;;;;;;;0.90;0.90;;;28.80;84.60;;;;;;5050503;28;20727;-66
2023/09/23 10:37:28;;;;;;;1.38;0.93;;;28.90;83.70;;;;;;5048046;28;20268;-66
2023/09/23 10:39:55;;;;;;;1.02;1.00;;;29.00;82.80;;;;;;5049370;28;20548;-66
2023/09/23 10:42:23;;;;;;;0.88;0.88;;;29.00;82.30;;;;;;5059793;28;20194;-66
2023/09/23 10:44:52;;;;;;;0.80;0.80;;;29.10;81.50;;;;;;5050133;28;20205;-66
2023/09/23 10:47:20;;;;;;;0.70;0.70;;;29.00;80.80;;;;;;5050661;28;20527;-66
2023/09/23 10:49:47;;;;;;;0.70;0.70;;;28.90;81.00;;;;;;5052301;28;20335;-66
2023/09/23 10:52:15;;;;;;;1.13;1.02;;;28.70;81.20;;;;;;5049550;28;20194;-66
2023/09/23 10:54:43;;;;;;;0.98;0.98;;;28.30;80.90;;;;;;5052898;28;20190;-66
2023/09/23 10:57:10;;;;;;;1.10;1.10;;;28.10;80.90;;;;;;5052142;28;20212;-67
2023/09/23 10:59:43;;;;;;;1.00;1.00;;;28.00;81.40;;;;;;5048600;28;20998;-68
2023/09/23 11:02:11;;;;;;;1.00;1.00;;;28.00;81.40;;;;;;5051749;28;20662;-67
2023/09/23 11:04:38;;;;;;;1.00;1.00;;;27.80;80.30;;;;;;5031714;28;20316;-67
2023/09/23 11:07:07;;;;;;;1.10;1.10;;;27.40;81.30;;;;;;5050737;28;20217;-67
2023/09/23 11:09:35;;;;;;;1.10;1.10;;;27.10;82.20;;;;;;5048957;28;20214;-67
2023/09/23 11:12:10;;;;;;;1.05;1.05;;;26.80;82.70;;;;;;5051684;28;20186;-67
2023/09/23 11:14:38;;;;;;;1.40;1.40;;;26.60;83.00;;;;;;5042980;28;20199;-67
2023/09/23 11:17:05;;;;;;;1.25;1.15;;;26.30;83.70;;;;;;5043647;28;20518;-67
2023/09/23 11:19:33;;;;;;;1.05;1.00;;;25.90;84.60;;;;;;5048130;28;20201;-66
2023/09/23 11:22:03;;;;;;;1.10;1.00;;;25.70;85.50;;;;;;5034151;28;20198;-67
2023/09/23 11:24:38;;;;;;;0.90;0.90;;;25.50;85.80;;;;;;5046767;28;20204;-66
2023/09/23 11:27:07;;;;;;;2.75;0.98;;;25.40;86.40;;;;;;5049922;28;20316;-66
2023/09/23 11:29:37;;;;;;;1.02;1.00;;;25.30;86.70;;;;;;5048675;28;20197;-66
2023/09/23 11:32:04;;;;;;;1.40;1.30;;;25.40;86.70;;;;;;5045856;28;20182;-66
2023/09/23 11:34:33;;;;;;;1.35;1.23;;;25.40;86.40;;;;;;5048870;28;20206;-67
2023/09/23 11:37:00;;;;;;;1.42;1.33;;;25.40;86.60;;;;;;5050634;28;20190;-67
2023/09/23 11:39:27;;;;;;;1.00;1.00;;;25.30;86.90;;;;;;5051412;28;20212;-66
2023/09/23 11:41:57;;;;;;;1.00;1.00;;;25.10;87.50;;;;;;5052637;28;20200;-67
2023/09/23 11:44:24;;;;;;;1.77;1.30;;;25.10;88.10;;;;;;5050112;28;20194;-67
2023/09/23 11:46:51;;;;;;;1.40;1.25;;;25.00;88.40;;;;;;5051227;28;20218;-66
2023/09/23 11:49:19;;;;;;;1.60;1.38;;;24.90;88.50;;;;;;5032436;28;20608;-67
2023/09/23 11:51:47;;;;;;;1.38;1.27;;;24.90;88.80;;;;;;5051147;28;20553;-67
2023/09/23 11:54:15;;;;;;;1.58;1.48;;;24.90;88.80;;;;;;5051620;28;20216;-67
2023/09/23 11:56:42;;;;;;;1.60;1.50;;;25.10;89.50;;;;;;5050125;28;20686;-67
2023/09/23 11:59:09;;;;;;;1.10;1.10;;;25.00;88.70;;;;;;5036573;28;20300;-67
2023/09/23 12:01:36;;;;;;;1.50;1.40;;;25.00;89.10;;;;;;5038910;28;20194;-67
2023/09/23 12:04:04;;;;;;;1.50;1.40;;;25.20;88.90;;;;;;5047558;28;20561;-67
2023/09/23 12:06:34;;;;;;;1.50;1.40;;;25.40;88.80;;;;;;5053254;28;20205;-66
2023/09/23 12:09:09;;;;;;;1.30;1.30;;;25.40;88.50;;;;;;5050601;28;20210;-66
2023/09/23 12:11:36;;;;;;;1.60;1.50;;;25.40;88.60;;;;;;5061117;28;20231;-67
2023/09/23 12:14:03;;;;;;;1.00;1.00;;;25.50;88.20;;;;;;5048321;28;20204;-66
2023/09/23 12:16:33;;;;;;;1.20;1.20;;;25.60;88.00;;;;;;5051224;28;20736;-67
2023/09/23 12:19:04;;;;;;;1.15;1.15;;;25.80;87.50;;;;;;5037671;28;20206;-67
2023/09/23 12:21:34;;;;;;;0.98;0.90;;;26.10;87.00;;;;;;5049106;28;20205;-67
2023/09/23 12:24:03;;;;;;;1.90;1.15;;;26.40;86.50;;;;;;5049929;28;20206;-68
2023/09/23 12:26:31;;;;;;;0.98;0.98;;;26.80;85.70;;;;;;5048853;28;20205;-66
2023/09/23 12:28:58;;;;;;;1.30;1.20;;;27.10;84.90;;;;;;5037657;28;20206;-66
2023/09/23 12:31:28;;;;;;;0.90;0.90;;;27.30;84.20;;;;;;5035157;28;20236;-66
2023/09/23 12:33:56;;;;;;;1.10;1.10;;;27.60;83.80;;;;;;5038620;28;20205;-67
2023/09/23 12:36:23;;;;;;;2.33;1.70;;;27.90;83.20;;;;;;5049713;28;20339;-67
2023/09/23 12:38:50;;;;;;;1.40;1.30;;;27.90;82.00;;;;;;5058548;28;20632;-66
2023/09/23 12:41:18;;;;;;;1.52;1.42;;;27.70;82.10;;;;;;5049435;28;20210;-67
2023/09/23 12:43:45;;;;;;;1.17;1.17;;;27.60;82.40;;;;;;5057780;28;20723;-66
2023/09/23 12:46:12;;;;;;;1.10;1.10;;;27.60;82.50;;;;;;5048122;28;20685;-66
2023/09/23 12:48:40;;;;;;;1.30;1.30;;;27.50;82.40;;;;;;5059594;28;20201;-67
2023/09/23 12:51:11;;;;;;;1.48;1.38;;;27.60;82.30;;;;;;5051410;28;20198;-68
2023/09/23 12:53:38;;;;;;;1.10;1.10;;;27.40;81.70;;;;;;5052400;28;20197;-67
2023/09/23 12:56:06;;;;;;;1.50;1.40;;;27.20;82.10;;;;;;5048456;28;20910;-67
2023/09/23 12:58:34;;;;;;;1.40;1.30;;;27.00;82.10;;;;;;5048032;28;20288;-68
2023/09/23 13:01:03;;;;;;;1.58;1.20;;;26.70;82.70;;;;;;5049120;28;20248;-67
2023/09/23 13:03:32;;;;;;;1.10;1.10;;;26.50;83.10;;;;;;5028767;28;20206;-67
2023/09/23 13:05:59;;;;;;;1.40;1.30;;;26.30;83.30;;;;;;5048232;28;20309;-67
2023/09/23 13:08:26;;;;;;;1.30;1.30;;;26.10;83.50;;;;;;5056402;28;20193;-66
2023/09/23 13:10:54;;;;;;;1.20;1.20;;;26.00;84.10;;;;;;5056677;28;20202;-67
2023/09/23 13:13:21;;;;;;;1.23;1.20;;;25.80;84.20;;;;;;5048754;28;20221;-67
2023/09/23 13:15:49;;;;;;;1.33;1.23;;;25.70;84.50;;;;;;5055072;28;20626;-68
2023/09/23 13:18:17;;;;;;;1.23;1.20;;;25.60;84.80;;;;;;5052590;28;20271;-67
2023/09/23 13:20:44;;;;;;;1.25;1.20;;;25.50;85.10;;;;;;5048457;28;20202;-67
2023/09/23 13:23:11;;;;;;;1.58;1.15;;;25.50;85.30;;;;;;5056093;28;20197;-67
2023/09/23 13:25:39;;;;;;;2.53;1.27;;;25.40;85.30;;;;;;5053208;28;20297;-67
2023/09/23 13:28:06;;;;;;;1.95;1.52;;;25.40;85.70;;;;;;5051826;28;20584;-67
2023/09/23 13:30:38;;;;;;;1.52;1.42;;;25.20;86.10;;;;;;5048807;28;20205;-67
2023/09/23 13:33:08;;;;;;;1.52;1.33;;;25.00;86.80;;;;;;5048516;28;20228;-68
2023/09/23 13:35:36;;;;;;;1.40;1.30;;;25.00;87.10;;;;;;5048438;28;20833;-67
2023/09/23 13:38:04;;;;;;;1.60;1.50;;;24.90;87.10;;;;;;5048344;28;20281;-66
2023/09/23 13:40:31;;;;;;;1.40;1.30;;;24.80;86.90;;;;;;5030252;28;20589;-66
2023/09/23 13:42:58;;;;;;;1.35;1.35;;;24.70;86.90;;;;;;5048478;28;20194;-66
2023/09/23 13:45:25;;;;;;;2.25;1.20;;;24.60;87.20;;;;;;5057760;28;20193;-67
2023/09/23 13:47:52;;;;;;;1.20;1.17;;;24.50;87.50;;;;;;5049400;28;20214;-66
2023/09/23 13:50:21;;;;;;;1.23;1.23;;;24.40;87.70;;;;;;5045745;28;20266;-66